Valley Cottage, New York
Current Conditions -  °F | °C
As of 11:56 PM on Thursday 27 Nov 2014 (Local Time) from KHPN Reporting Station
Overcast Overcast  
Wind Chill: 25°   Ceiling: 4200
Heat Index: 32°   Visibility: 10mi
Dew Point: 27°   Wind: 8mph
Humidity: 82%   Direction: 350°N
Pressure: 30.01"   Gusts: NA
Location:  41.11°N, 73.96°W
Report Text: KHPN 280456Z 35007KT 10SM OVC042 00/M03 A3001 RMK AO2 SLP172 T00001028 400170000
Loading
Personal Weather Stations






























Interactive Weather Map New forecast layout! Learn more

10-Day Weather Forecast

Advertisements
Track Severe Weather on mobile